Time,TemperatureF,DewpointF,PressureIn,WindDirection,WindDirectionDegrees,WindSpeedMPH,WindSpeedGustMPH,Humidity,HourlyPrecipIn,Conditions,Clouds,dailyrainin,SoftwareType,DateUTC
2013-04-23 00:00:00,32.9,-0.8,27.82,SSW,204,0.0,0.0,23,0.00,,---,0.00,VWS V14.01,2013-04-23 07:00:00,
2013-04-23 00:05:00,33.1,-0.7,27.82,SSW,204,0.0,0.0,23,0.00,,---,0.00,VWS V14.01,2013-04-23 07:05:00,
2013-04-23 00:10:00,33.1,-0.7,27.82,SSW,204,0.0,0.0,23,0.00,,---,0.00,VWS V14.01,2013-04-23 07:10:00,
2013-04-23 00:15:00,33.1,-0.7,27.82,SSW,204,0.0,0.0,23,0.00,,---,0.00,VWS V14.01,2013-04-23 07:15:00,
2013-04-23 00:20:00,33.3,-0.5,27.82,SSW,204,0.0,0.0,23,0.00,,---,0.00,VWS V14.01,2013-04-23 07:20:00,
2013-04-23 00:25:00,32.9,-0.8,27.82,SSW,204,0.0,0.0,23,0.00,,---,0.00,VWS V14.01,2013-04-23 07:25:00,
2013-04-23 00:30:00,32.9,-0.8,27.82,SSW,204,0.0,0.0,23,0.00,,---,0.00,VWS V14.01,2013-04-23 07:30:00,
2013-04-23 00:35:00,32.9,-0.8,27.82,SSW,204,0.0,0.0,23,0.00,,---,0.00,VWS V14.01,2013-04-23 07:35:00,
2013-04-23 00:40:00,32.7,-1.0,27.82,SSW,204,0.0,0.0,23,0.00,,---,0.00,VWS V14.01,2013-04-23 07:40:00,
2013-04-23 00:45:00,32.7,-1.0,27.82,SSW,204,0.0,0.0,23,0.00,,---,0.00,VWS V14.01,2013-04-23 07:45:00,
2013-04-23 00:50:00,32.7,-1.0,27.82,SSW,204,0.0,0.0,23,0.00,,---,0.00,VWS V14.01,2013-04-23 07:50:00,
2013-04-23 00:55:00,32.7,-1.0,27.82,SSW,204,0.0,0.0,23,0.00,,---,0.00,VWS V14.01,2013-04-23 07:55:00,
2013-04-23 01:00:00,32.5,-1.1,27.82,SSW,204,0.0,0.0,23,0.00,,---,0.00,VWS V14.01,2013-04-23 08:00:00,
2013-04-23 01:05:00,32.5,-1.1,27.82,SSW,204,0.0,0.0,23,0.00,,---,0.00,VWS V14.01,2013-04-23 08:05:00,
2013-04-23 01:10:00,32.4,-1.3,27.82,SSW,204,0.0,0.0,23,0.00,,---,0.00,VWS V14.01,2013-04-23 08:10:00,
2013-04-23 01:15:00,32.0,-1.6,27.82,SSW,204,0.0,0.0,23,0.00,,---,0.00,VWS V14.01,2013-04-23 08:15:00,
2013-04-23 01:20:00,31.5,-2.0,27.82,SSW,204,0.0,0.0,23,0.00,,---,0.00,VWS V14.01,2013-04-23 08:20:00,
2013-04-23 01:25:00,31.3,-2.2,27.82,SSW,204,0.0,0.0,23,0.00,,---,0.00,VWS V14.01,2013-04-23 08:25:00,
2013-04-23 01:30:00,31.1,-2.4,27.82,SSW,204,0.0,0.0,23,0.00,,---,0.00,VWS V14.01,2013-04-23 08:30:00,
2013-04-23 01:35:00,31.3,-2.2,27.82,SSW,204,0.0,0.0,23,0.00,,---,0.00,VWS V14.01,2013-04-23 08:35:00,
2013-04-23 01:40:00,31.1,-2.4,27.82,SSW,204,0.0,0.0,23,0.00,,---,0.00,VWS V14.01,2013-04-23 08:40:00,
2013-04-23 01:45:00,30.9,-2.5,27.82,SSW,204,0.0,0.0,23,0.00,,---,0.00,VWS V14.01,2013-04-23 08:45:00,
2013-04-23 01:50:00,30.7,-2.7,27.82,SSW,204,0.0,0.0,23,0.00,,---,0.00,VWS V14.01,2013-04-23 08:50:00,
2013-04-23 01:55:00,30.6,-2.8,27.82,SW,228,2.7,2.7,23,0.00,,---,0.00,VWS V14.01,2013-04-23 08:55:00,
2013-04-23 02:00:00,30.6,-2.8,27.82,SW,228,0.0,0.0,23,0.00,,---,0.00,VWS V14.01,2013-04-23 09:00:00,
2013-04-23 02:05:00,30.9,-0.8,27.82,SW,228,0.0,0.0,25,0.00,,---,0.00,VWS V14.01,2013-04-23 09:05:00,
2013-04-23 02:10:00,30.9,-0.8,27.82,SSW,204,2.2,3.6,25,0.00,,---,0.00,VWS V14.01,2013-04-23 09:10:00,
2013-04-23 02:15:00,30.9,-0.8,27.82,SW,215,3.1,3.6,25,0.00,,---,0.00,VWS V14.01,2013-04-23 09:15:00,
2013-04-23 02:20:00,30.9,-0.8,27.82,SW,215,0.0,2.2,25,0.00,,---,0.00,VWS V14.01,2013-04-23 09:20:00,
2013-04-23 02:25:00,30.9,-0.8,27.82,SW,216,0.0,0.0,25,0.00,,---,0.00,VWS V14.01,2013-04-23 09:25:00,
2013-04-23 02:30:00,30.7,-0.9,27.82,SW,216,0.0,0.0,25,0.00,,---,0.00,VWS V14.01,2013-04-23 09:30:00,
2013-04-23 02:35:00,30.4,-1.2,27.82,SW,216,0.0,0.0,25,0.00,,---,0.00,VWS V14.01,2013-04-23 09:35:00,
2013-04-23 02:40:00,30.2,-1.4,27.82,SW,216,0.0,0.0,25,0.00,,---,0.00,VWS V14.01,2013-04-23 09:40:00,
2013-04-23 02:45:00,30.2,-1.4,27.82,SW,216,0.0,0.0,25,0.00,,---,0.00,VWS V14.01,2013-04-23 09:45:00,
2013-04-23 02:50:00,30.6,-1.1,27.82,SW,214,0.0,0.0,25,0.00,,---,0.00,VWS V14.01,2013-04-23 09:50:00,
2013-04-23 02:55:00,30.4,-1.2,27.82,SSW,213,0.0,0.0,25,0.00,,---,0.00,VWS V14.01,2013-04-23 09:55:00,
2013-04-23 03:00:00,30.4,-1.2,27.82,SSW,213,0.0,0.0,25,0.00,,---,0.00,VWS V14.01,2013-04-23 10:00:00,
2013-04-23 03:05:00,30.6,-1.1,27.82,SSW,212,0.0,0.0,25,0.00,,---,0.00,VWS V14.01,2013-04-23 10:05:00,
2013-04-23 03:10:00,30.9,-0.8,27.82,SSW,196,0.0,0.0,25,0.00,,---,0.00,VWS V14.01,2013-04-23 10:10:00,
2013-04-23 03:15:00,30.7,-0.9,27.82,SSW,196,0.0,0.0,25,0.00,,---,0.00,VWS V14.01,2013-04-23 10:15:00,
2013-04-23 03:20:00,30.9,-0.8,27.79,SSW,196,2.7,2.7,25,0.00,,---,0.00,VWS V14.01,2013-04-23 10:20:00,
2013-04-23 03:25:00,30.9,-0.8,27.79,SSW,195,0.0,2.2,25,0.00,,---,0.00,VWS V14.01,2013-04-23 10:25:00,
2013-04-23 03:30:00,30.7,-0.9,27.79,SSW,195,0.0,0.0,25,0.00,,---,0.00,VWS V14.01,2013-04-23 10:30:00,
2013-04-23 03:35:00,30.6,-1.1,27.79,SSW,195,0.0,0.0,25,0.00,,---,0.00,VWS V14.01,2013-04-23 10:35:00,
2013-04-23 03:40:00,30.2,-1.4,27.79,SSW,193,0.0,0.0,25,0.00,,---,0.00,VWS V14.01,2013-04-23 10:40:00,
2013-04-23 03:45:00,30.0,-1.5,27.79,SSW,192,0.0,0.0,25,0.00,,---,0.00,VWS V14.01,2013-04-23 10:45:00,
2013-04-23 03:50:00,30.0,-1.5,27.79,West,273,0.0,2.2,25,0.00,,---,0.00,VWS V14.01,2013-04-23 10:50:00,
2013-04-23 03:55:00,30.0,-1.5,27.79,SSW,193,0.0,0.0,25,0.00,,---,0.00,VWS V14.01,2013-04-23 10:55:00,
2013-04-23 04:00:00,30.4,-1.2,27.79,SSW,193,0.0,0.0,25,0.00,,---,0.00,VWS V14.01,2013-04-23 11:00:00,
2013-04-23 04:05:00,30.6,-1.1,27.79,SSW,207,3.1,3.1,25,0.00,,---,0.00,VWS V14.01,2013-04-23 11:05:00,
2013-04-23 04:10:00,30.7,-0.9,27.79,SSW,194,0.0,0.0,25,0.00,,---,0.00,VWS V14.01,2013-04-23 11:10:00,
2013-04-23 04:15:00,30.7,-0.9,27.79,SSW,199,2.2,2.7,25,0.00,,---,0.00,VWS V14.01,2013-04-23 11:15:00,
2013-04-23 04:20:00,30.7,-0.9,27.79,SSW,199,0.0,0.0,25,0.00,,---,0.00,VWS V14.01,2013-04-23 11:20:00,
2013-04-23 04:25:00,30.4,-1.2,27.79,SSW,212,0.0,0.0,25,0.00,,---,0.00,VWS V14.01,2013-04-23 11:25:00,
2013-04-23 04:30:00,30.0,-1.5,27.79,SSW,212,0.0,0.0,25,0.00,,---,0.00,VWS V14.01,2013-04-23 11:30:00,
2013-04-23 04:35:00,30.0,-1.5,27.79,SSW,212,0.0,0.0,25,0.00,,---,0.00,VWS V14.01,2013-04-23 11:35:00,
2013-04-23 04:40:00,30.0,-1.5,27.79,SSW,211,0.0,0.0,25,0.00,,---,0.00,VWS V14.01,2013-04-23 11:40:00,
2013-04-23 04:45:00,30.2,-1.4,27.79,SSW,207,0.0,0.0,25,0.00,,---,0.00,VWS V14.01,2013-04-23 11:45:00,
2013-04-23 04:50:00,30.2,-1.4,27.79,SSW,206,0.0,0.0,25,0.00,,---,0.00,VWS V14.01,2013-04-23 11:50:00,
2013-04-23 04:55:00,30.2,-1.4,27.79,SSW,206,0.0,0.0,25,0.00,,---,0.00,VWS V14.01,2013-04-23 11:55:00,
2013-04-23 05:00:00,30.2,-1.4,27.79,SSW,210,2.7,2.7,25,0.00,,---,0.00,VWS V14.01,2013-04-23 12:00:00,
2013-04-23 05:05:00,30.2,-1.4,27.79,SSW,202,2.7,2.7,25,0.00,,---,0.00,VWS V14.01,2013-04-23 12:05:00,
2013-04-23 05:10:00,30.6,-1.1,27.79,SSW,203,2.7,2.7,25,0.00,,---,0.00,VWS V14.01,2013-04-23 12:10:00,
2013-04-23 05:15:00,30.7,-0.9,27.79,SSW,205,2.7,2.7,25,0.00,,---,0.00,VWS V14.01,2013-04-23 12:15:00,
2013-04-23 05:20:00,30.7,-0.9,27.79,SSW,197,2.7,2.7,25,0.00,,---,0.00,VWS V14.01,2013-04-23 12:20:00,
2013-04-23 05:25:00,30.7,-0.9,27.79,SSE,166,0.0,0.0,25,0.00,,---,0.00,VWS V14.01,2013-04-23 12:25:00,
2013-04-23 05:30:00,30.7,-0.9,27.79,South,186,0.0,0.0,25,0.00,,---,0.00,VWS V14.01,2013-04-23 12:30:00,
2013-04-23 05:35:00,30.6,-1.1,27.79,SSW,205,0.0,0.0,25,0.00,,---,0.00,VWS V14.01,2013-04-23 12:35:00,
2013-04-23 05:40:00,30.7,-0.9,27.79,South,187,2.2,2.2,25,0.00,,---,0.00,VWS V14.01,2013-04-23 12:40:00,
2013-04-23 05:45:00,30.6,-1.1,27.79,South,187,2.2,2.2,25,0.00,,---,0.00,VWS V14.01,2013-04-23 12:45:00,
2013-04-23 05:50:00,30.6,-1.1,27.79,South,189,2.7,2.7,25,0.00,,---,0.00,VWS V14.01,2013-04-23 12:50:00,
2013-04-23 05:55:00,30.6,-1.1,27.79,SW,215,0.0,0.0,25,0.00,,---,0.00,VWS V14.01,2013-04-23 12:55:00,
2013-04-23 06:00:00,30.7,-0.9,27.79,SSW,206,2.2,2.7,25,0.00,,---,0.00,VWS V14.01,2013-04-23 13:00:00,
2013-04-23 06:05:00,31.1,-0.6,27.76,South,178,0.0,2.2,25,0.00,,---,0.00,VWS V14.01,2013-04-23 13:05:00,
2013-04-23 06:10:00,31.1,-0.6,27.76,South,182,0.0,0.0,25,0.00,,---,0.00,VWS V14.01,2013-04-23 13:10:00,
2013-04-23 06:15:00,31.3,-0.4,27.76,South,172,0.0,0.0,25,0.00,,---,0.00,VWS V14.01,2013-04-23 13:15:00,
2013-04-23 06:20:00,31.6,-0.1,27.76,SSE,164,2.2,2.2,25,0.00,,---,0.00,VWS V14.01,2013-04-23 13:20:00,
2013-04-23 06:25:00,32.0,0.2,27.76,South,183,0.0,0.0,25,0.00,,---,0.00,VWS V14.01,2013-04-23 13:25:00,
2013-04-23 06:30:00,32.0,0.2,27.76,South,177,0.0,0.0,25,0.00,,---,0.00,VWS V14.01,2013-04-23 13:30:00,
2013-04-23 06:35:00,32.2,0.3,27.76,South,187,3.1,3.1,25,0.00,,---,0.00,VWS V14.01,2013-04-23 13:35:00,
2013-04-23 06:40:00,32.2,0.3,27.76,South,190,2.2,2.2,25,0.00,,---,0.00,VWS V14.01,2013-04-23 13:40:00,
2013-04-23 06:45:00,32.4,0.5,27.76,South,188,3.1,3.1,25,0.00,,---,0.00,VWS V14.01,2013-04-23 13:45:00,
2013-04-23 06:50:00,32.5,0.6,27.79,South,183,2.2,2.2,25,0.00,,---,0.00,VWS V14.01,2013-04-23 13:50:00,
2013-04-23 06:55:00,32.5,0.6,27.79,SW,222,2.2,4.0,25,0.00,,---,0.00,VWS V14.01,2013-04-23 13:55:00,
2013-04-23 07:00:00,32.7,0.8,27.79,South,188,2.7,3.6,25,0.00,,---,0.00,VWS V14.01,2013-04-23 14:00:00,
2013-04-23 07:05:00,32.7,0.8,27.76,SSE,160,2.7,2.7,25,0.00,,---,0.00,VWS V14.01,2013-04-23 14:05:00,
2013-04-23 07:10:00,32.9,0.9,27.76,SSW,193,0.0,0.0,25,0.00,,---,0.00,VWS V14.01,2013-04-23 14:10:00,
2013-04-23 07:15:00,33.1,1.1,27.76,South,173,0.0,0.0,25,0.00,,---,0.00,VWS V14.01,2013-04-23 14:15:00,
2013-04-23 07:20:00,33.3,1.2,27.76,SSW,195,0.0,2.7,25,0.00,,---,0.00,VWS V14.01,2013-04-23 14:20:00,
2013-04-23 07:25:00,33.4,-0.4,27.76,South,173,0.0,0.0,23,0.00,,---,0.00,VWS V14.01,2013-04-23 14:25:00,
2013-04-23 07:30:00,33.4,-0.4,27.76,South,179,0.0,4.0,23,0.00,,---,0.00,VWS V14.01,2013-04-23 14:30:00,
2013-04-23 07:35:00,33.6,1.6,27.76,SSW,205,3.6,3.6,25,0.00,,---,0.00,VWS V14.01,2013-04-23 14:35:00,
2013-04-23 07:40:00,33.8,-1.0,27.76,South,190,0.0,4.0,22,0.00,,---,0.00,VWS V14.01,2013-04-23 14:40:00,
2013-04-23 07:45:00,34.0,-0.9,27.76,South,181,2.7,2.7,22,0.00,,---,0.00,VWS V14.01,2013-04-23 14:45:00,
2013-04-23 07:50:00,34.3,-0.6,27.76,South,170,0.0,0.0,22,0.00,,---,0.00,VWS V14.01,2013-04-23 14:50:00,
2013-04-23 07:55:00,34.7,-0.2,27.76,SSW,197,2.2,3.1,22,0.00,,---,0.00,VWS V14.01,2013-04-23 14:55:00,
2013-04-23 08:00:00,35.1,0.1,27.76,South,187,2.7,4.0,22,0.00,,---,0.00,VWS V14.01,2013-04-23 15:00:00,
2013-04-23 08:05:00,35.4,0.4,27.79,SSW,202,2.2,3.1,22,0.00,,---,0.00,VWS V14.01,2013-04-23 15:05:00,
2013-04-23 08:10:00,35.8,0.7,27.79,SW,217,2.2,2.2,22,0.00,,---,0.00,VWS V14.01,2013-04-23 15:10:00,
2013-04-23 08:15:00,36.0,0.8,27.79,SSW,197,0.0,3.1,22,0.00,,---,0.00,VWS V14.01,2013-04-23 15:15:00,
2013-04-23 08:20:00,36.1,1.0,27.79,SSW,209,4.9,4.9,22,0.00,,---,0.00,VWS V14.01,2013-04-23 15:20:00,
2013-04-23 08:25:00,36.3,1.1,27.79,SW,233,0.0,0.0,22,0.00,,---,0.00,VWS V14.01,2013-04-23 15:25:00,
2013-04-23 08:30:00,36.7,1.4,27.79,SW,219,0.0,4.9,22,0.00,,---,0.00,VWS V14.01,2013-04-23 15:30:00,
2013-04-23 08:35:00,36.9,1.6,27.79,South,181,2.2,2.7,22,0.00,,---,0.00,VWS V14.01,2013-04-23 15:35:00,
2013-04-23 08:40:00,37.0,1.7,27.79,South,176,0.0,3.1,22,0.00,,---,0.00,VWS V14.01,2013-04-23 15:40:00,
2013-04-23 08:45:00,37.4,1.0,27.79,SSW,203,0.0,2.7,21,0.00,,---,0.00,VWS V14.01,2013-04-23 15:45:00,
2013-04-23 08:50:00,37.9,1.5,27.79,SSW,199,2.7,2.7,21,0.00,,---,0.00,VWS V14.01,2013-04-23 15:50:00,
2013-04-23 08:55:00,38.3,1.8,27.79,South,181,0.0,3.6,21,0.00,,---,0.00,VWS V14.01,2013-04-23 15:55:00,
2013-04-23 09:00:00,38.5,2.0,27.79,South,184,2.7,2.7,21,0.00,,---,0.00,VWS V14.01,2013-04-23 16:00:00,
2013-04-23 09:05:00,38.8,2.3,27.79,SW,221,3.6,3.6,21,0.00,,---,0.00,VWS V14.01,2013-04-23 16:05:00,
2013-04-23 09:10:00,39.2,2.6,27.76,SSW,193,0.0,2.7,21,0.00,,---,0.00,VWS V14.01,2013-04-23 16:10:00,
2013-04-23 09:15:00,39.6,2.9,27.76,South,173,0.0,0.0,21,0.00,,---,0.00,VWS V14.01,2013-04-23 16:15:00,
2013-04-23 09:20:00,40.3,3.5,27.79,SSW,204,4.0,4.0,21,0.00,,---,0.00,VWS V14.01,2013-04-23 16:20:00,
2013-04-23 09:25:00,40.8,3.9,27.79,SSW,205,3.6,4.5,21,0.00,,---,0.00,VWS V14.01,2013-04-23 16:25:00,
2013-04-23 09:29:00,41.5,4.5,27.79,SW,222,0.0,0.0,21,0.00,,---,0.00,VWS V14.01,2013-04-23 16:29:00,
2013-04-23 09:34:00,42.4,5.3,27.79,SSW,211,2.7,3.6,21,0.00,,---,0.00,VWS V14.01,2013-04-23 16:34:00,
2013-04-23 09:39:00,42.8,4.5,27.79,SW,236,4.9,4.9,20,0.00,,---,0.00,VWS V14.01,2013-04-23 16:39:00,
2013-04-23 09:44:00,43.0,4.7,27.79,SW,218,0.0,3.6,20,0.00,,---,0.00,VWS V14.01,2013-04-23 16:44:00,
2013-04-23 09:49:00,43.0,4.7,27.79,SW,229,3.1,5.8,20,0.00,,---,0.00,VWS V14.01,2013-04-23 16:49:00,
2013-04-23 09:54:00,43.2,4.8,27.79,SSW,206,5.8,7.6,20,0.00,,---,0.00,VWS V14.01,2013-04-23 16:54:00,
2013-04-23 09:59:00,43.2,4.8,27.79,SSW,207,4.0,5.4,20,0.00,,---,0.00,VWS V14.01,2013-04-23 16:59:00,
2013-04-23 10:04:00,43.0,4.7,27.76,SW,220,4.0,4.9,20,0.00,,---,0.00,VWS V14.01,2013-04-23 17:04:00,
2013-04-23 10:09:00,43.2,4.8,27.76,SW,215,3.6,5.8,20,0.00,,---,0.00,VWS V14.01,2013-04-23 17:09:00,
2013-04-23 10:14:00,43.5,5.1,27.76,South,175,5.8,5.8,20,0.00,,---,0.00,VWS V14.01,2013-04-23 17:14:00,
2013-04-23 10:19:00,43.9,5.4,27.76,SW,214,4.9,5.8,20,0.00,,---,0.00,VWS V14.01,2013-04-23 17:19:00,
2013-04-23 10:24:00,45.0,6.3,27.76,WSW,239,4.0,4.0,20,0.00,,---,0.00,VWS V14.01,2013-04-23 17:24:00,
2013-04-23 10:29:00,46.2,7.4,27.76,SSW,208,7.6,7.6,20,0.00,,---,0.00,VWS V14.01,2013-04-23 17:29:00,
2013-04-23 10:34:00,46.6,6.5,27.76,West,262,6.3,6.3,19,0.00,,---,0.00,VWS V14.01,2013-04-23 17:34:00,
2013-04-23 10:39:00,47.7,7.4,27.76,SW,234,8.3,8.3,19,0.00,,---,0.00,VWS V14.01,2013-04-23 17:39:00,
2013-04-23 10:44:00,48.2,7.9,27.76,WSW,253,7.6,8.3,19,0.00,,---,0.00,VWS V14.01,2013-04-23 17:44:00,
2013-04-23 10:49:00,48.9,8.5,27.76,South,185,4.9,5.8,19,0.00,,---,0.00,VWS V14.01,2013-04-23 17:49:00,
2013-04-23 10:54:00,49.1,8.6,27.76,South,172,3.6,3.6,19,0.00,,---,0.00,VWS V14.01,2013-04-23 17:54:00,
2013-04-23 10:59:00,49.6,9.1,27.76,SW,236,3.6,5.4,19,0.00,,---,0.00,VWS V14.01,2013-04-23 17:59:00,
2013-04-23 11:04:00,50.0,9.4,27.76,West,264,6.7,6.7,19,0.00,,---,0.00,VWS V14.01,2013-04-23 18:04:00,
2013-04-23 11:09:00,50.0,9.4,27.76,SW,224,3.6,6.3,19,0.00,,---,0.00,VWS V14.01,2013-04-23 18:09:00,
2013-04-23 11:14:00,50.2,9.5,27.76,WSW,252,8.1,8.3,19,0.00,,---,0.00,VWS V14.01,2013-04-23 18:14:00,
2013-04-23 11:19:00,50.0,9.4,27.76,WSW,254,8.1,8.1,19,0.00,,---,0.00,VWS V14.01,2013-04-23 18:19:00,
2013-04-23 11:24:00,50.2,9.5,27.76,WNW,301,3.1,3.1,19,0.00,,---,0.00,VWS V14.01,2013-04-23 18:24:00,
2013-04-23 11:29:00,51.4,10.6,27.76,South,191,0.0,0.0,19,0.00,,---,0.00,VWS V14.01,2013-04-23 18:29:00,
2013-04-23 11:34:00,52.2,10.0,27.76,SW,236,5.8,6.3,18,0.00,,---,0.00,VWS V14.01,2013-04-23 18:34:00,
2013-04-23 11:39:00,52.5,10.2,27.76,West,260,5.4,5.4,18,0.00,,---,0.00,VWS V14.01,2013-04-23 18:39:00,
2013-04-23 11:44:00,53.1,10.7,27.76,SW,224,2.7,3.6,18,0.00,,---,0.00,VWS V14.01,2013-04-23 18:44:00,
2013-04-23 11:49:00,53.1,10.7,27.76,SSW,204,7.2,7.2,18,0.00,,---,0.00,VWS V14.01,2013-04-23 18:49:00,
2013-04-23 11:54:00,53.6,11.1,27.76,NW,320,0.0,3.1,18,0.00,,---,0.00,VWS V14.01,2013-04-23 18:54:00,
2013-04-23 11:59:00,53.6,11.1,27.76,NNW,333,0.0,0.0,18,0.00,,---,0.00,VWS V14.01,2013-04-23 18:59:00,
2013-04-23 12:04:00,53.8,11.3,27.76,SW,230,0.0,0.0,18,0.00,,---,0.00,VWS V14.01,2013-04-23 19:04:00,
2013-04-23 12:09:00,54.7,12.0,27.76,WSW,239,5.4,8.7,18,0.00,,---,0.00,VWS V14.01,2013-04-23 19:09:00,
2013-04-23 12:14:00,53.6,11.1,27.76,WSW,247,3.6,3.6,18,0.00,,---,0.00,VWS V14.01,2013-04-23 19:14:00,
2013-04-23 12:19:00,53.8,11.3,27.76,WNW,288,4.0,8.1,18,0.00,,---,0.00,VWS V14.01,2013-04-23 19:19:00,
2013-04-23 12:24:00,53.6,11.1,27.76,WNW,287,4.9,5.8,18,0.00,,---,0.00,VWS V14.01,2013-04-23 19:24:00,
2013-04-23 12:29:00,53.8,11.3,27.76,WNW,293,5.8,5.8,18,0.00,,---,0.00,VWS V14.01,2013-04-23 19:29:00,
2013-04-23 12:34:00,53.6,11.1,27.76,WNW,292,0.0,3.1,18,0.00,,---,0.00,VWS V14.01,2013-04-23 19:34:00,
2013-04-23 12:39:00,54.1,11.6,27.76,NNW,341,4.9,5.8,18,0.00,,---,0.00,VWS V14.01,2013-04-23 19:39:00,
2013-04-23 12:44:00,54.9,12.2,27.76,West,269,3.1,3.6,18,0.00,,---,0.00,VWS V14.01,2013-04-23 19:44:00,
2013-04-23 12:49:00,55.2,12.5,27.76,North,353,0.0,0.0,18,0.00,,---,0.00,VWS V14.01,2013-04-23 19:49:00,
2013-04-23 12:54:00,55.2,12.5,27.76,West,279,4.0,5.4,18,0.00,,---,0.00,VWS V14.01,2013-04-23 19:54:00,
2013-04-23 12:59:00,55.9,11.8,27.76,West,265,0.0,0.0,17,0.00,,---,0.00,VWS V14.01,2013-04-23 19:59:00,
2013-04-23 13:04:00,55.9,11.8,27.76,WNW,299,4.0,6.3,17,0.00,,---,0.00,VWS V14.01,2013-04-23 20:04:00,
2013-04-23 13:09:00,55.9,11.8,27.76,WNW,293,0.0,4.0,17,0.00,,---,0.00,VWS V14.01,2013-04-23 20:09:00,
2013-04-23 13:14:00,55.9,11.8,27.76,NW,320,5.8,7.6,17,0.00,,---,0.00,VWS V14.01,2013-04-23 20:14:00,
2013-04-23 13:19:00,55.8,11.6,27.73,West,274,8.7,10.1,17,0.00,,---,0.00,VWS V14.01,2013-04-23 20:19:00,
2013-04-23 13:24:00,54.1,11.6,27.73,NNE,16,6.3,8.3,18,0.00,,---,0.00,VWS V14.01,2013-04-23 20:24:00,
2013-04-23 13:29:00,53.8,11.3,27.73,NNE,14,6.3,8.1,18,0.00,,---,0.00,VWS V14.01,2013-04-23 20:29:00,
2013-04-23 13:34:00,54.7,12.0,27.73,NW,306,8.3,8.3,18,0.00,,---,0.00,VWS V14.01,2013-04-23 20:34:00,
2013-04-23 13:39:00,55.4,11.3,27.73,West,275,2.7,2.7,17,0.00,,---,0.00,VWS V14.01,2013-04-23 20:39:00,
2013-04-23 13:44:00,55.9,11.8,27.73,WNW,284,0.0,0.0,17,0.00,,---,0.00,VWS V14.01,2013-04-23 20:44:00,
2013-04-23 13:49:00,55.6,11.5,27.73,NNE,14,6.3,6.3,17,0.00,,---,0.00,VWS V14.01,2013-04-23 20:49:00,
2013-04-23 13:54:00,54.5,11.9,27.73,North,353,5.4,7.6,18,0.00,,---,0.00,VWS V14.01,2013-04-23 20:54:00,
2013-04-23 13:59:00,53.6,11.1,27.73,NNE,12,3.6,5.8,18,0.00,,---,0.00,VWS V14.01,2013-04-23 20:59:00,
2013-04-23 14:04:00,54.1,11.6,27.73,North,353,0.0,2.2,18,0.00,,---,0.00,VWS V14.01,2013-04-23 21:04:00,
2013-04-23 14:09:00,54.0,11.4,27.73,East,96,2.2,4.0,18,0.00,,---,0.00,VWS V14.01,2013-04-23 21:09:00,
2013-04-23 14:14:00,55.2,12.5,27.73,NW,323,4.9,4.9,18,0.00,,---,0.00,VWS V14.01,2013-04-23 21:14:00,
2013-04-23 14:19:00,55.0,12.3,27.73,West,260,3.1,3.1,18,0.00,,---,0.00,VWS V14.01,2013-04-23 21:19:00,
2013-04-23 14:24:00,54.3,11.7,27.73,West,263,0.0,0.0,18,0.00,,---,0.00,VWS V14.01,2013-04-23 21:24:00,
2013-04-23 14:29:00,53.8,11.3,27.73,NNW,344,0.0,2.7,18,0.00,,---,0.00,VWS V14.01,2013-04-23 21:29:00,
2013-04-23 14:34:00,53.2,10.9,27.73,NE,51,0.0,0.0,18,0.00,,---,0.00,VWS V14.01,2013-04-23 21:34:00,
2013-04-23 14:39:00,53.8,11.3,27.73,SW,216,4.9,5.4,18,0.00,,---,0.00,VWS V14.01,2013-04-23 21:39:00,
2013-04-23 14:44:00,55.2,12.5,27.73,ENE,64,2.7,4.0,18,0.00,,---,0.00,VWS V14.01,2013-04-23 21:44:00,
2013-04-23 14:49:00,55.6,11.5,27.73,WSW,244,5.8,6.3,17,0.00,,---,0.00,VWS V14.01,2013-04-23 21:49:00,
2013-04-23 14:54:00,55.4,11.3,27.73,SW,221,0.0,0.0,17,0.00,,---,0.00,VWS V14.01,2013-04-23 21:54:00,
2013-04-23 14:59:00,55.6,11.5,27.73,North,5,5.8,7.6,17,0.00,,---,0.00,VWS V14.01,2013-04-23 21:59:00,
2013-04-23 15:04:00,55.9,11.8,27.73,North,353,4.9,4.9,17,0.00,,---,0.00,VWS V14.01,2013-04-23 22:04:00,
2013-04-23 15:09:00,56.1,11.9,27.73,West,262,4.9,4.9,17,0.00,,---,0.00,VWS V14.01,2013-04-23 22:09:00,
2013-04-23 15:14:00,55.6,11.5,27.73,NNE,23,8.3,10.1,17,0.00,,---,0.00,VWS V14.01,2013-04-23 22:14:00,
2013-04-23 15:19:00,55.8,11.6,27.73,NNW,339,8.3,9.2,17,0.00,,---,0.00,VWS V14.01,2013-04-23 22:19:00,
2013-04-23 15:24:00,55.2,12.5,27.70,North,6,5.8,5.8,18,0.00,,---,0.00,VWS V14.01,2013-04-23 22:24:00,
2013-04-23 15:29:00,54.5,11.9,27.70,North,7,7.2,8.1,18,0.00,,---,0.00,VWS V14.01,2013-04-23 22:29:00,
2013-04-23 15:34:00,54.1,11.6,27.70,NE,34,4.0,5.8,18,0.00,,---,0.00,VWS V14.01,2013-04-23 22:34:00,
2013-04-23 15:39:00,54.5,11.9,27.70,NNE,30,4.0,4.9,18,0.00,,---,0.00,VWS V14.01,2013-04-23 22:39:00,
2013-04-23 15:44:00,55.0,12.3,27.70,ENE,58,4.9,5.4,18,0.00,,---,0.00,VWS V14.01,2013-04-23 22:44:00,
2013-04-23 15:49:00,55.2,12.5,27.70,NNE,26,12.3,12.3,18,0.00,,---,0.00,VWS V14.01,2013-04-23 22:49:00,
2013-04-23 15:54:00,55.4,11.3,27.70,North,357,11.0,11.0,17,0.00,,---,0.00,VWS V14.01,2013-04-23 22:54:00,
2013-04-23 15:59:00,55.9,11.8,27.70,North,6,10.5,10.5,17,0.00,,---,0.00,VWS V14.01,2013-04-23 22:59:00,
2013-04-23 16:04:00,55.8,11.6,27.70,NNE,26,5.8,5.8,17,0.00,,---,0.00,VWS V14.01,2013-04-23 23:04:00,
2013-04-23 16:09:00,56.5,12.2,27.70,NNW,335,5.8,5.8,17,0.00,,---,0.00,VWS V14.01,2013-04-23 23:09:00,
2013-04-23 16:14:00,56.8,12.5,27.70,NNW,345,5.4,5.4,17,0.00,,---,0.00,VWS V14.01,2013-04-23 23:14:00,
2013-04-23 16:19:00,57.6,13.1,27.70,NNE,25,10.1,12.8,17,0.00,,---,0.00,VWS V14.01,2013-04-23 23:19:00,
2013-04-23 16:24:00,57.2,12.8,27.70,WNW,303,5.8,5.8,17,0.00,,---,0.00,VWS V14.01,2013-04-23 23:24:00,
2013-04-23 16:29:00,57.2,12.8,27.70,NNE,16,5.8,8.1,17,0.00,,---,0.00,VWS V14.01,2013-04-23 23:29:00,
2013-04-23 16:34:00,56.1,11.9,27.70,NE,35,11.4,12.3,17,0.00,,---,0.00,VWS V14.01,2013-04-23 23:34:00,
2013-04-23 16:39:00,55.8,11.6,27.70,NE,45,5.4,5.4,17,0.00,,---,0.00,VWS V14.01,2013-04-23 23:39:00,
2013-04-23 16:44:00,55.9,11.8,27.70,NNE,21,3.6,3.6,17,0.00,,---,0.00,VWS V14.01,2013-04-23 23:44:00,
2013-04-23 16:49:00,55.4,11.3,27.70,NNE,19,4.0,4.5,17,0.00,,---,0.00,VWS V14.01,2013-04-23 23:49:00,
2013-04-23 16:54:00,54.7,12.0,27.70,NE,37,10.1,13.2,18,0.00,,---,0.00,VWS V14.01,2013-04-23 23:54:00,
2013-04-23 16:59:00,55.0,12.3,27.70,NNE,31,8.1,10.5,18,0.00,,---,0.00,VWS V14.01,2013-04-23 23:59:00,
2013-04-23 17:04:00,55.6,11.5,27.70,NNE,21,8.7,10.1,17,0.00,,---,0.00,VWS V14.01,2013-04-24 00:04:00,
2013-04-23 17:09:00,55.6,11.5,27.70,NE,36,8.1,8.7,17,0.00,,---,0.00,VWS V14.01,2013-04-24 00:09:00,
2013-04-23 17:14:00,55.2,12.5,27.70,ENE,63,6.3,7.6,18,0.00,,---,0.00,VWS V14.01,2013-04-24 00:14:00,
2013-04-23 17:19:00,55.4,11.3,27.70,North,0,5.8,6.7,17,0.00,,---,0.00,VWS V14.01,2013-04-24 00:19:00,
2013-04-23 17:24:00,54.9,12.2,27.70,NNE,28,5.4,6.3,18,0.00,,---,0.00,VWS V14.01,2013-04-24 00:24:00,
2013-04-23 17:29:00,55.2,12.5,27.70,North,357,5.8,5.8,18,0.00,,---,0.00,VWS V14.01,2013-04-24 00:29:00,
2013-04-23 17:34:00,55.0,12.3,27.70,North,357,5.4,5.4,18,0.00,,---,0.00,VWS V14.01,2013-04-24 00:34:00,
2013-04-23 17:39:00,55.0,12.3,27.70,NNE,16,3.6,3.6,18,0.00,,---,0.00,VWS V14.01,2013-04-24 00:39:00,
2013-04-23 17:44:00,55.0,12.3,27.70,East,94,7.6,7.6,18,0.00,,---,0.00,VWS V14.01,2013-04-24 00:44:00,
2013-04-23 17:49:00,54.9,12.2,27.70,NNE,21,3.6,3.6,18,0.00,,---,0.00,VWS V14.01,2013-04-24 00:49:00,
2013-04-23 17:54:00,54.7,12.0,27.70,NNE,24,5.4,6.3,18,0.00,,---,0.00,VWS V14.01,2013-04-24 00:54:00,
2013-04-23 17:59:00,54.5,11.9,27.70,NNE,14,3.1,3.1,18,0.00,,---,0.00,VWS V14.01,2013-04-24 00:59:00,
2013-04-23 18:04:00,54.1,11.6,27.70,NE,52,0.0,0.0,18,0.00,,---,0.00,VWS V14.01,2013-04-24 01:04:00,
2013-04-23 18:09:00,54.0,11.4,27.70,NE,55,3.1,5.4,18,0.00,,---,0.00,VWS V14.01,2013-04-24 01:09:00,
2013-04-23 18:14:00,54.0,11.4,27.70,NNE,16,4.0,4.0,18,0.00,,---,0.00,VWS V14.01,2013-04-24 01:14:00,
2013-04-23 18:19:00,54.0,11.4,27.70,NE,43,4.0,5.4,18,0.00,,---,0.00,VWS V14.01,2013-04-24 01:19:00,
2013-04-23 18:24:00,53.6,11.1,27.70,NE,39,5.4,5.4,18,0.00,,---,0.00,VWS V14.01,2013-04-24 01:24:00,
2013-04-23 18:29:00,53.6,11.1,27.70,ENE,63,4.0,4.0,18,0.00,,---,0.00,VWS V14.01,2013-04-24 01:29:00,
2013-04-23 18:34:00,53.8,11.3,27.70,NE,52,4.0,4.0,18,0.00,,---,0.00,VWS V14.01,2013-04-24 01:34:00,
2013-04-23 18:39:00,53.4,11.0,27.70,ENE,58,2.7,3.6,18,0.00,,---,0.00,VWS V14.01,2013-04-24 01:39:00,
2013-04-23 18:44:00,53.1,10.7,27.70,NNE,28,4.0,4.0,18,0.00,,---,0.00,VWS V14.01,2013-04-24 01:44:00,
2013-04-23 18:49:00,52.9,10.6,27.70,NE,44,2.7,3.1,18,0.00,,---,0.00,VWS V14.01,2013-04-24 01:49:00,
2013-04-23 18:54:00,52.9,10.6,27.70,NNE,28,0.0,0.0,18,0.00,,---,0.00,VWS V14.01,2013-04-24 01:54:00,
2013-04-23 18:59:00,52.7,10.4,27.70,NNE,33,0.0,0.0,18,0.00,,---,0.00,VWS V14.01,2013-04-24 01:59:00,
2013-04-23 19:04:00,52.7,10.4,27.70,NNE,31,3.1,4.0,18,0.00,,---,0.00,VWS V14.01,2013-04-24 02:04:00,
2013-04-23 19:09:00,52.7,10.4,27.70,NNE,16,2.7,2.7,18,0.00,,---,0.00,VWS V14.01,2013-04-24 02:09:00,
2013-04-23 19:14:00,52.7,10.4,27.70,North,1,0.0,0.0,18,0.00,,---,0.00,VWS V14.01,2013-04-24 02:14:00,
2013-04-23 19:19:00,52.5,10.2,27.70,North,1,0.0,0.0,18,0.00,,---,0.00,VWS V14.01,2013-04-24 02:19:00,
2013-04-23 19:24:00,52.3,10.1,27.70,North,1,0.0,0.0,18,0.00,,---,0.00,VWS V14.01,2013-04-24 02:24:00,
2013-04-23 19:29:00,52.2,10.0,27.70,North,1,0.0,0.0,18,0.00,,---,0.00,VWS V14.01,2013-04-24 02:29:00,
2013-04-23 19:34:00,51.8,9.7,27.70,North,1,0.0,0.0,18,0.00,,---,0.00,VWS V14.01,2013-04-24 02:34:00,
2013-04-23 19:39:00,51.4,10.6,27.70,North,2,0.0,0.0,19,0.00,,---,0.00,VWS V14.01,2013-04-24 02:39:00,
2013-04-23 19:44:00,50.7,10.0,27.70,North,1,0.0,0.0,19,0.00,,---,0.00,VWS V14.01,2013-04-24 02:44:00,
2013-04-23 19:49:00,50.2,9.5,27.70,North,1,0.0,0.0,19,0.00,,---,0.00,VWS V14.01,2013-04-24 02:49:00,
2013-04-23 19:54:00,49.6,9.1,27.70,North,1,0.0,0.0,19,0.00,,---,0.00,VWS V14.01,2013-04-24 02:54:00,
2013-04-23 19:59:00,49.1,8.6,27.70,North,2,0.0,0.0,19,0.00,,---,0.00,VWS V14.01,2013-04-24 02:59:00,
2013-04-23 20:04:00,48.6,8.2,27.70,North,1,0.0,0.0,19,0.00,,---,0.00,VWS V14.01,2013-04-24 03:04:00,
2013-04-23 20:10:00,48.0,7.7,27.70,North,1,0.0,0.0,19,0.00,,---,0.00,VWS V14.01,2013-04-24 03:10:00,
2013-04-23 20:15:00,47.3,7.1,27.70,North,2,0.0,0.0,19,0.00,,---,0.00,VWS V14.01,2013-04-24 03:15:00,
2013-04-23 20:20:00,46.8,6.7,27.70,North,1,0.0,0.0,19,0.00,,---,0.00,VWS V14.01,2013-04-24 03:20:00,
2013-04-23 20:25:00,46.2,7.4,27.70,North,2,0.0,0.0,20,0.00,,---,0.00,VWS V14.01,2013-04-24 03:25:00,
2013-04-23 20:30:00,45.9,7.1,27.70,North,1,0.0,0.0,20,0.00,,---,0.00,VWS V14.01,2013-04-24 03:30:00,
2013-04-23 20:35:00,45.3,6.6,27.70,North,1,0.0,0.0,20,0.00,,---,0.00,VWS V14.01,2013-04-24 03:35:00,
2013-04-23 20:40:00,44.8,6.2,27.70,North,1,0.0,0.0,20,0.00,,---,0.00,VWS V14.01,2013-04-24 03:40:00,
2013-04-23 20:45:00,44.4,5.9,27.70,North,1,0.0,0.0,20,0.00,,---,0.00,VWS V14.01,2013-04-24 03:45:00,
2013-04-23 20:51:00,44.1,5.6,27.70,North,1,0.0,0.0,20,0.00,,---,0.00,VWS V14.01,2013-04-24 03:51:00,
2013-04-23 20:56:00,43.9,5.4,27.70,North,2,0.0,0.0,20,0.00,,---,0.00,VWS V14.01,2013-04-24 03:56:00,
2013-04-23 21:01:00,43.7,5.3,27.70,North,2,0.0,0.0,20,0.00,,---,0.00,VWS V14.01,2013-04-24 04:01:00,
2013-04-23 21:06:00,43.2,4.8,27.73,North,1,0.0,0.0,20,0.00,,---,0.00,VWS V14.01,2013-04-24 04:06:00,
2013-04-23 21:11:00,43.2,4.8,27.73,North,1,0.0,0.0,20,0.00,,---,0.00,VWS V14.01,2013-04-24 04:11:00,
2013-04-23 21:16:00,43.0,4.7,27.73,North,1,0.0,0.0,20,0.00,,---,0.00,VWS V14.01,2013-04-24 04:16:00,
2013-04-23 21:21:00,42.8,4.5,27.73,North,1,0.0,0.0,20,0.00,,---,0.00,VWS V14.01,2013-04-24 04:21:00,
2013-04-23 21:26:00,42.6,5.4,27.73,North,1,0.0,0.0,21,0.00,,---,0.00,VWS V14.01,2013-04-24 04:26:00,
2013-04-23 21:31:00,42.6,5.4,27.73,North,1,0.0,0.0,21,0.00,,---,0.00,VWS V14.01,2013-04-24 04:31:00,
2013-04-23 21:36:00,42.6,5.4,27.73,North,1,0.0,0.0,21,0.00,,---,0.00,VWS V14.01,2013-04-24 04:36:00,
2013-04-23 21:41:00,42.6,5.4,27.73,SW,216,0.0,0.0,21,0.00,,---,0.00,VWS V14.01,2013-04-24 04:41:00,
2013-04-23 21:46:00,41.9,4.8,27.73,SSW,208,0.0,0.0,21,0.00,,---,0.00,VWS V14.01,2013-04-24 04:46:00,
2013-04-23 21:51:00,41.0,4.1,27.73,SSW,208,0.0,0.0,21,0.00,,---,0.00,VWS V14.01,2013-04-24 04:51:00,
2013-04-23 21:56:00,40.8,3.9,27.73,SSW,208,0.0,0.0,21,0.00,,---,0.00,VWS V14.01,2013-04-24 04:56:00,
2013-04-23 22:01:00,41.0,4.1,27.73,SSW,208,0.0,0.0,21,0.00,,---,0.00,VWS V14.01,2013-04-24 05:01:00,
2013-04-23 22:06:00,40.8,3.9,27.73,SSW,208,0.0,0.0,21,0.00,,---,0.00,VWS V14.01,2013-04-24 05:06:00,
2013-04-23 22:11:00,40.6,3.8,27.73,SSW,209,0.0,0.0,21,0.00,,---,0.00,VWS V14.01,2013-04-24 05:11:00,
2013-04-23 22:16:00,40.5,3.6,27.73,SSW,208,0.0,0.0,21,0.00,,---,0.00,VWS V14.01,2013-04-24 05:16:00,
2013-04-23 22:21:00,40.5,3.6,27.73,SSW,208,0.0,0.0,21,0.00,,---,0.00,VWS V14.01,2013-04-24 05:21:00,
2013-04-23 22:26:00,40.6,3.8,27.73,SSW,208,0.0,0.0,21,0.00,,---,0.00,VWS V14.01,2013-04-24 05:26:00,
2013-04-23 22:31:00,40.8,3.9,27.73,SSW,209,0.0,0.0,21,0.00,,---,0.00,VWS V14.01,2013-04-24 05:31:00,
2013-04-23 22:36:00,40.8,3.9,27.73,SSW,208,0.0,0.0,21,0.00,,---,0.00,VWS V14.01,2013-04-24 05:36:00,
2013-04-23 22:41:00,39.9,3.2,27.73,SSW,208,0.0,0.0,21,0.00,,---,0.00,VWS V14.01,2013-04-24 05:41:00,
2013-04-23 22:46:00,39.6,2.9,27.73,SSW,208,0.0,0.0,21,0.00,,---,0.00,VWS V14.01,2013-04-24 05:46:00,
2013-04-23 22:51:00,39.2,2.6,27.73,SSW,208,0.0,0.0,21,0.00,,---,0.00,VWS V14.01,2013-04-24 05:51:00,
2013-04-23 22:56:00,38.8,2.3,27.73,SSW,208,0.0,0.0,21,0.00,,---,0.00,VWS V14.01,2013-04-24 05:56:00,
2013-04-23 23:01:00,38.5,2.0,27.73,SSW,209,0.0,0.0,21,0.00,,---,0.00,VWS V14.01,2013-04-24 06:01:00,
2013-04-23 23:06:00,38.5,2.0,27.73,SSW,208,0.0,0.0,21,0.00,,---,0.00,VWS V14.01,2013-04-24 06:06:00,
2013-04-23 23:11:00,38.5,2.0,27.73,SSW,209,0.0,0.0,21,0.00,,---,0.00,VWS V14.01,2013-04-24 06:11:00,
2013-04-23 23:16:00,38.3,1.8,27.73,SSW,209,0.0,0.0,21,0.00,,---,0.00,VWS V14.01,2013-04-24 06:16:00,
2013-04-23 23:21:00,37.8,1.4,27.73,SSW,208,0.0,0.0,21,0.00,,---,0.00,VWS V14.01,2013-04-24 06:21:00,
2013-04-23 23:26:00,37.4,1.0,27.73,SSW,209,0.0,0.0,21,0.00,,---,0.00,VWS V14.01,2013-04-24 06:26:00,
2013-04-23 23:31:00,37.4,1.0,27.73,SSW,209,0.0,0.0,21,0.00,,---,0.00,VWS V14.01,2013-04-24 06:31:00,
2013-04-23 23:36:00,37.4,1.0,27.73,SSW,208,0.0,0.0,21,0.00,,---,0.00,VWS V14.01,2013-04-24 06:36:00,
2013-04-23 23:41:00,37.4,1.0,27.73,SSW,209,0.0,0.0,21,0.00,,---,0.00,VWS V14.01,2013-04-24 06:41:00,
2013-04-23 23:46:00,37.4,1.0,27.73,SSW,209,0.0,0.0,21,0.00,,---,0.00,VWS V14.01,2013-04-24 06:46:00,
2013-04-23 23:51:00,37.6,1.2,27.73,SSW,208,0.0,0.0,21,0.00,,---,0.00,VWS V14.01,2013-04-24 06:51:00,
2013-04-23 23:56:00,37.4,1.0,27.73,SSW,208,0.0,0.0,21,0.00,,---,0.00,VWS V14.01,2013-04-24 06:56:00,